Homer Glen, Illinois
Current Conditions -  °F | °C
As of 7:35 PM on Thursday 27 Nov 2014 (Local Time) from KLOT Reporting Station
Scattered Clouds Scattered Clouds  
Wind Chill: 18°   Ceiling: Unl
Heat Index: 18°   Visibility: 10mi
Dew Point: 14°   Wind: 3mph
Humidity: 85%   Direction: 290°WNW
Pressure: 30.41"   Gusts: NA
Location:  41.6186°N, 87.9337°W
Report Text: KLOT 280135Z AUTO 29003KT 10SM SCT016 M08/M10 A3041 RMK AO2 T10781099
Loading
Personal Weather Stations






























Interactive Weather Map New forecast layout! Learn more

10-Day Weather Forecast

Advertisements
Track Severe Weather on mobile